createdAt,value
2019-06-15T00:02:12.554Z,11.00
2019-06-15T00:04:40.134Z,10.90
2019-06-15T00:07:07.090Z,10.90
2019-06-15T00:12:05.646Z,10.80
2019-06-15T00:14:32.388Z,10.70
2019-06-15T00:16:59.159Z,10.70
2019-06-15T00:19:26.859Z,10.70
2019-06-15T00:21:53.569Z,10.70
2019-06-15T00:24:34.399Z,10.70
2019-06-15T00:26:47.475Z,10.80
2019-06-15T00:29:14.306Z,10.70
2019-06-15T00:31:41.012Z,10.70
2019-06-15T00:34:08.543Z,10.70
2019-06-15T00:36:35.301Z,10.60
2019-06-15T00:39:02.056Z,10.60
2019-06-15T00:41:29.572Z,10.60
2019-06-15T00:43:56.423Z,10.50
2019-06-15T00:46:23.142Z,10.50
2019-06-15T00:48:49.955Z,10.50
2019-06-15T00:51:17.437Z,10.40
2019-06-15T00:53:44.236Z,10.40
2019-06-15T00:56:10.956Z,10.40
2019-06-15T00:58:37.805Z,10.40
2019-06-15T01:01:04.634Z,10.40
2019-06-15T01:03:31.431Z,10.30
2019-06-15T01:05:58.872Z,10.30
2019-06-15T01:08:26.381Z,10.30
2019-06-15T01:10:53.128Z,10.20
2019-06-15T01:13:20.008Z,10.30
2019-06-15T01:15:46.933Z,10.20
2019-06-15T01:18:13.923Z,10.20
2019-06-15T01:20:41.588Z,10.20
2019-06-15T01:23:08.417Z,10.20
2019-06-15T01:25:35.965Z,10.20
2019-06-15T01:28:04.647Z,10.10
2019-06-15T01:30:31.441Z,10.20
2019-06-15T01:32:58.152Z,10.20
2019-06-15T01:35:25.631Z,10.20
2019-06-15T01:37:52.546Z,10.20
2019-06-15T01:40:20.128Z,10.20
2019-06-15T01:42:46.974Z,10.20
2019-06-15T01:45:13.747Z,10.20
2019-06-15T01:47:40.560Z,10.20
2019-06-15T01:50:07.592Z,10.20
2019-06-15T01:52:34.657Z,10.10
2019-06-15T01:55:02.466Z,10.10
2019-06-15T01:57:30.737Z,10.10
2019-06-15T01:59:58.288Z,10.20
2019-06-15T02:02:25.381Z,10.10
2019-06-15T02:04:52.534Z,10.10
2019-06-15T02:07:19.537Z,10.10
2019-06-15T02:09:48.523Z,10.10
2019-06-15T02:12:16.605Z,10.10
2019-06-15T02:14:43.857Z,10.10
2019-06-15T02:17:10.610Z,10.20
2019-06-15T02:19:37.489Z,10.20
2019-06-15T02:22:04.308Z,10.20
2019-06-15T02:24:32.165Z,10.20
2019-06-15T02:26:59.044Z,10.20
2019-06-15T02:29:26.499Z,10.20
2019-06-15T02:31:53.488Z,10.20
2019-06-15T02:34:20.235Z,10.30
2019-06-15T02:36:48.079Z,10.30
2019-06-15T02:39:15.842Z,10.40
2019-06-15T02:41:43.544Z,10.40
2019-06-15T02:44:10.597Z,10.40
2019-06-15T02:46:37.964Z,10.50
2019-06-15T02:49:05.778Z,10.50
2019-06-15T02:51:32.736Z,10.60
2019-06-15T02:53:59.706Z,10.60
2019-06-15T02:56:26.482Z,10.60
2019-06-15T02:58:53.214Z,10.70
2019-06-15T03:01:20.753Z,10.80
2019-06-15T03:03:47.924Z,10.80
2019-06-15T03:06:14.788Z,10.90
2019-06-15T03:08:42.389Z,11.00
2019-06-15T03:11:12.914Z,11.00
2019-06-15T03:13:41.302Z,11.00
2019-06-15T03:16:09.468Z,11.20
2019-06-15T03:18:37.499Z,11.20
2019-06-15T03:21:04.530Z,11.20
2019-06-15T03:23:31.265Z,11.20
2019-06-15T03:26:05.361Z,11.30
2019-06-15T03:28:25.074Z,11.30
2019-06-15T03:30:51.920Z,11.40
2019-06-15T03:33:18.709Z,11.50
2019-06-15T03:35:45.524Z,11.60
2019-06-15T03:38:12.251Z,11.70
2019-06-15T03:40:39.747Z,12.80
2019-06-15T03:43:06.475Z,12.80
2019-06-15T03:45:34.556Z,14.00
2019-06-15T03:48:01.346Z,14.00
2019-06-15T03:50:28.826Z,14.20
2019-06-15T03:52:55.619Z,14.20
2019-06-15T03:55:22.392Z,14.10
2019-06-15T03:57:49.828Z,14.10
2019-06-15T04:00:33.352Z,14.00
2019-06-15T04:03:00.085Z,14.00
2019-06-15T04:05:27.645Z,13.80
2019-06-15T04:07:54.666Z,13.70
2019-06-15T04:10:21.905Z,13.80
2019-06-15T04:12:49.458Z,14.10
2019-06-15T04:15:16.231Z,14.10
2019-06-15T04:17:42.932Z,14.30
2019-06-15T04:20:10.684Z,14.50
2019-06-15T04:22:37.444Z,14.40
2019-06-15T04:25:05.175Z,14.70
2019-06-15T04:27:32.035Z,15.10
2019-06-15T04:29:58.774Z,15.90
2019-06-15T04:32:25.634Z,17.10
2019-06-15T04:34:52.432Z,18.40
2019-06-15T04:37:19.317Z,19.90
2019-06-15T04:39:46.030Z,22.40
2019-06-15T04:42:13.522Z,25.90
2019-06-15T04:44:40.281Z,25.80
2019-06-15T04:47:07.082Z,28.20
2019-06-15T04:49:33.811Z,29.50
2019-06-15T04:52:01.280Z,31.70
2019-06-15T04:54:28.974Z,32.40
2019-06-15T04:56:55.649Z,32.40
2019-06-15T04:59:22.387Z,28.70
2019-06-15T05:01:49.313Z,28.40
2019-06-15T05:04:18.184Z,27.00
2019-06-15T05:06:45.877Z,26.40
2019-06-15T05:09:14.259Z,24.00
2019-06-15T05:11:42.477Z,23.90
2019-06-15T05:14:10.613Z,24.50
2019-06-15T05:16:38.252Z,24.50
2019-06-15T05:19:07.668Z,24.50
2019-06-15T05:21:35.757Z,24.60
2019-06-15T05:24:18.319Z,23.10
2019-06-15T05:26:46.180Z,23.00
2019-06-15T05:29:13.159Z,23.90
2019-06-15T05:31:40.241Z,24.20
2019-06-15T05:34:07.391Z,25.60
2019-06-15T05:36:35.513Z,31.20
2019-06-15T05:39:03.127Z,31.10
2019-06-15T05:41:30.249Z,31.90
2019-06-15T05:43:58.161Z,30.00
2019-06-15T05:46:24.913Z,30.00
2019-06-15T05:48:53.152Z,28.10
2019-06-15T05:51:19.905Z,28.00
2019-06-15T05:53:46.739Z,26.70
2019-06-15T05:56:14.370Z,26.80
2019-06-15T05:58:41.559Z,25.20
2019-06-15T06:01:08.429Z,25.60
2019-06-15T06:03:36.176Z,26.10
2019-06-15T06:06:03.870Z,29.90
2019-06-15T06:08:31.790Z,29.80
2019-06-15T06:10:58.583Z,30.60
2019-06-15T06:13:25.536Z,31.60
2019-06-15T06:15:52.676Z,32.50
2019-06-15T06:18:19.652Z,33.90
2019-06-15T06:20:51.605Z,32.80
2019-06-15T06:23:18.420Z,32.80
2019-06-15T06:25:45.242Z,33.70
2019-06-15T06:28:12.699Z,34.80
2019-06-15T06:30:40.734Z,34.70
2019-06-15T06:33:08.363Z,35.60
2019-06-15T06:35:35.996Z,35.60
2019-06-15T06:38:02.794Z,38.40
2019-06-15T06:40:44.472Z,39.00
2019-06-15T06:43:11.206Z,36.70
2019-06-15T06:45:38.391Z,37.40
2019-06-15T06:48:05.877Z,38.70
2019-06-15T06:50:32.705Z,38.70
2019-06-15T06:52:59.442Z,36.70
2019-06-15T06:55:26.629Z,36.50
2019-06-15T06:57:56.944Z,38.20
2019-06-15T07:00:21.081Z,38.00
2019-06-15T07:02:47.872Z,38.00
2019-06-15T07:05:14.696Z,37.60
2019-06-15T07:07:42.189Z,37.00
2019-06-15T07:10:08.958Z,36.90
2019-06-15T07:12:35.764Z,38.80
2019-06-15T07:15:04.746Z,36.00
2019-06-15T07:17:29.400Z,37.90
2019-06-15T07:19:57.199Z,37.90
2019-06-15T07:22:23.917Z,38.20
2019-06-15T07:24:50.643Z,38.50
2019-06-15T07:27:17.448Z,38.30
2019-06-15T07:29:44.126Z,38.10
2019-06-15T07:32:10.832Z,39.20
2019-06-15T07:34:37.548Z,39.70
2019-06-15T07:37:04.249Z,37.60
2019-06-15T07:39:31.003Z,39.10
2019-06-15T07:41:58.443Z,42.50
2019-06-15T07:44:25.176Z,42.30
2019-06-15T07:46:51.894Z,41.70
2019-06-15T07:49:18.632Z,41.80
2019-06-15T07:51:46.118Z,40.80
2019-06-15T07:54:13.659Z,41.60
2019-06-15T07:56:40.392Z,41.50
2019-06-15T07:59:07.174Z,42.20
2019-06-15T08:01:33.970Z,42.40
2019-06-15T08:04:00.704Z,42.50
2019-06-15T08:06:28.338Z,40.80
2019-06-15T08:08:55.835Z,40.20
2019-06-15T08:11:23.326Z,40.90
2019-06-15T08:13:50.140Z,40.90
2019-06-15T08:16:16.949Z,38.90
2019-06-15T08:18:43.736Z,38.10
2019-06-15T08:21:10.482Z,36.20
2019-06-15T08:23:37.307Z,36.30
2019-06-15T08:26:04.380Z,36.40
2019-06-15T08:28:39.872Z,36.80
2019-06-15T08:30:57.940Z,36.90
2019-06-15T08:33:24.651Z,37.20
2019-06-15T08:35:51.340Z,36.10
2019-06-15T08:38:18.111Z,35.00
2019-06-15T08:40:45.924Z,36.60
2019-06-15T08:43:13.325Z,36.50
2019-06-15T08:45:42.072Z,35.30
2019-06-15T08:48:10.777Z,35.30
2019-06-15T08:50:38.421Z,33.60
2019-06-15T08:53:05.706Z,33.70
2019-06-15T08:55:32.861Z,33.50
2019-06-15T08:58:01.328Z,33.40
2019-06-15T09:00:29.206Z,31.80
2019-06-15T09:02:58.048Z,31.70
2019-06-15T09:05:25.063Z,31.30
2019-06-15T09:07:52.327Z,29.90
2019-06-15T09:10:19.399Z,30.20
2019-06-15T09:12:46.592Z,30.50
2019-06-15T09:15:14.175Z,30.60
2019-06-15T09:17:42.804Z,30.80
2019-06-15T09:20:10.535Z,30.90
2019-06-15T09:22:38.673Z,31.00
2019-06-15T09:25:05.924Z,30.10
2019-06-15T09:27:34.067Z,28.80
2019-06-15T09:30:01.744Z,28.70
2019-06-15T09:32:29.002Z,29.30
2019-06-15T09:34:55.992Z,28.80
2019-06-15T09:37:23.076Z,28.00
2019-06-15T09:39:50.792Z,28.00
2019-06-15T09:42:18.235Z,27.50
2019-06-15T09:44:46.201Z,27.90
2019-06-15T09:47:13.217Z,27.90
2019-06-15T09:49:40.887Z,28.30
2019-06-15T09:52:08.029Z,28.60
2019-06-15T09:54:35.909Z,28.00
2019-06-15T09:57:03.078Z,28.10
2019-06-15T09:59:31.115Z,27.60
2019-06-15T10:01:58.790Z,27.60
2019-06-15T10:04:26.612Z,27.50
2019-06-15T10:06:54.875Z,28.20
2019-06-15T10:09:22.888Z,28.60
2019-06-15T10:11:50.258Z,28.60
2019-06-15T10:14:17.788Z,28.20
2019-06-15T10:16:45.491Z,27.90
2019-06-15T10:19:13.815Z,27.90
2019-06-15T10:21:41.440Z,27.90
2019-06-15T10:24:08.719Z,28.20
2019-06-15T10:26:35.923Z,28.00
2019-06-15T10:29:03.004Z,28.20
2019-06-15T10:31:30.173Z,28.50
2019-06-15T10:33:57.027Z,27.60
2019-06-15T10:36:24.716Z,27.60
2019-06-15T10:38:52.524Z,27.80
2019-06-15T10:41:20.416Z,27.70
2019-06-15T10:43:48.492Z,27.80
2019-06-15T10:46:16.652Z,27.70
2019-06-15T10:48:43.641Z,27.70
2019-06-15T10:51:10.393Z,27.20
2019-06-15T10:53:37.148Z,27.10
2019-06-15T10:56:03.975Z,27.10
2019-06-15T10:58:30.738Z,27.30
2019-06-15T11:00:58.259Z,27.70
2019-06-15T11:03:25.132Z,27.70
2019-06-15T11:05:54.738Z,27.80
2019-06-15T11:08:19.897Z,27.70
2019-06-15T11:11:13.687Z,28.10
2019-06-15T11:13:40.386Z,28.00
2019-06-15T11:16:07.054Z,27.60
2019-06-15T11:18:33.855Z,27.00
2019-06-15T11:21:01.307Z,27.00
2019-06-15T11:23:28.520Z,27.00
2019-06-15T11:25:56.241Z,27.10
2019-06-15T11:28:23.711Z,26.80
2019-06-15T11:30:50.447Z,26.80
2019-06-15T11:33:17.285Z,26.80
2019-06-15T11:35:44.111Z,26.60
2019-06-15T11:38:14.423Z,26.60
2019-06-15T11:40:41.177Z,26.60
2019-06-15T11:43:08.808Z,26.70
2019-06-15T11:45:35.571Z,26.70
2019-06-15T11:48:02.281Z,26.50
2019-06-15T11:50:29.013Z,26.80
2019-06-15T11:52:55.740Z,27.00
2019-06-15T11:55:22.542Z,27.40
2019-06-15T11:57:49.310Z,27.40
2019-06-15T12:00:30.470Z,27.50
2019-06-15T12:02:42.977Z,27.30
2019-06-15T12:05:10.741Z,27.10
2019-06-15T12:07:38.213Z,27.10
2019-06-15T12:10:05.038Z,27.10
2019-06-15T12:12:32.513Z,27.10
2019-06-15T12:14:59.215Z,27.00
2019-06-15T12:17:25.978Z,27.10
2019-06-15T12:19:52.864Z,27.50
2019-06-15T12:22:26.460Z,27.50
2019-06-15T12:24:54.543Z,27.50
2019-06-15T12:27:21.568Z,27.40
2019-06-15T12:29:48.375Z,27.50
2019-06-15T12:32:15.170Z,27.50
2019-06-15T12:34:41.999Z,27.30
2019-06-15T12:37:08.723Z,27.20
2019-06-15T12:39:41.565Z,27.30
2019-06-15T12:42:03.630Z,27.30
2019-06-15T12:44:31.241Z,27.50
2019-06-15T12:46:59.117Z,27.60
2019-06-15T12:49:26.694Z,27.30
2019-06-15T12:51:53.817Z,27.30
2019-06-15T12:54:20.732Z,27.10
2019-06-15T12:56:47.486Z,27.30
2019-06-15T12:59:14.278Z,27.10
2019-06-15T13:01:41.036Z,27.00
2019-06-15T13:04:08.533Z,27.30
2019-06-15T13:06:35.389Z,27.30
2019-06-15T13:09:02.725Z,27.00
2019-06-15T13:11:29.640Z,26.90
2019-06-15T13:13:56.602Z,27.00
2019-06-15T13:16:36.065Z,27.10
2019-06-15T13:18:50.731Z,27.30
2019-06-15T13:21:17.674Z,27.10
2019-06-15T13:23:44.623Z,27.50
2019-06-15T13:26:12.345Z,27.60
2019-06-15T13:28:39.222Z,27.50
2019-06-15T13:31:17.663Z,27.80
2019-06-15T13:33:33.503Z,28.00
2019-06-15T13:36:00.280Z,27.90
2019-06-15T13:38:27.834Z,27.20
2019-06-15T13:40:54.677Z,27.10
2019-06-15T13:43:21.374Z,27.10
2019-06-15T13:45:48.167Z,27.30
2019-06-15T13:48:14.982Z,27.60
2019-06-15T13:50:41.909Z,27.80
2019-06-15T13:53:09.082Z,27.90
2019-06-15T13:55:35.910Z,27.50
2019-06-15T13:58:02.767Z,27.40
2019-06-15T14:00:29.532Z,27.20
2019-06-15T14:02:56.858Z,27.00
2019-06-15T14:05:23.652Z,26.70
2019-06-15T14:07:51.147Z,27.20
2019-06-15T14:10:17.941Z,27.20
2019-06-15T14:12:45.482Z,27.50
2019-06-15T14:15:12.248Z,27.50
2019-06-15T14:17:40.036Z,27.70
2019-06-15T14:20:05.954Z,27.50
2019-06-15T14:22:32.690Z,27.60
2019-06-15T14:25:00.172Z,27.60
2019-06-15T14:27:27.720Z,27.80
2019-06-15T14:29:55.208Z,27.80
2019-06-15T14:32:22.064Z,27.90
2019-06-15T14:34:48.787Z,27.90
2019-06-15T14:37:15.797Z,28.00
2019-06-15T14:39:43.270Z,27.90
2019-06-15T14:42:09.988Z,27.90
2019-06-15T14:44:37.574Z,27.70
2019-06-15T14:47:05.072Z,27.50
2019-06-15T14:49:31.811Z,27.40
2019-06-15T14:51:58.694Z,27.50
2019-06-15T14:54:26.540Z,27.50
2019-06-15T14:56:52.260Z,27.30
2019-06-15T14:59:19.031Z,27.00
2019-06-15T15:01:47.062Z,27.00
2019-06-15T15:04:19.710Z,27.00
2019-06-15T15:06:47.141Z,26.90
2019-06-15T15:09:13.462Z,26.90
2019-06-15T15:11:41.014Z,27.00
2019-06-15T15:14:07.738Z,27.00
2019-06-15T15:16:34.470Z,27.10
2019-06-15T15:19:01.643Z,27.00
2019-06-15T15:21:28.509Z,26.90
2019-06-15T15:23:57.038Z,26.90
2019-06-15T15:26:23.542Z,26.90
2019-06-15T15:28:51.234Z,26.80
2019-06-15T15:31:17.954Z,26.80
2019-06-15T15:33:47.700Z,26.70
2019-06-15T15:36:11.971Z,26.70
2019-06-15T15:38:38.714Z,26.80
2019-06-15T15:41:06.698Z,26.90
2019-06-15T15:43:32.456Z,26.80
2019-06-15T15:45:59.153Z,26.90
2019-06-15T15:48:26.049Z,26.80
2019-06-15T15:50:52.990Z,26.80
2019-06-15T15:53:19.813Z,26.50
2019-06-15T15:55:46.842Z,26.30
2019-06-15T15:58:13.288Z,26.10
2019-06-15T16:00:40.063Z,25.80
2019-06-15T16:03:07.270Z,25.60
2019-06-15T16:05:36.847Z,25.70
2019-06-15T16:08:00.463Z,25.80
2019-06-15T16:10:27.249Z,25.80
2019-06-15T16:12:56.660Z,26.00
2019-06-15T16:15:21.078Z,26.30
2019-06-15T16:17:47.827Z,26.30
2019-06-15T16:20:17.285Z,26.50
2019-06-15T16:22:43.027Z,26.60
2019-06-15T16:25:09.912Z,26.60
2019-06-15T16:27:37.144Z,26.60
2019-06-15T16:30:06.470Z,26.40
2019-06-15T16:32:32.169Z,26.40
2019-06-15T16:34:59.663Z,26.20
2019-06-15T16:37:26.516Z,26.10
2019-06-15T16:39:53.339Z,25.80
2019-06-15T16:42:21.347Z,25.50
2019-06-15T16:44:48.200Z,25.50
2019-06-15T16:47:16.716Z,25.70
2019-06-15T16:49:41.710Z,25.70
2019-06-15T16:52:08.544Z,25.80
2019-06-15T16:54:36.128Z,25.80
2019-06-15T16:57:02.120Z,25.80
2019-06-15T16:59:28.939Z,25.60
2019-06-15T17:01:56.040Z,25.50
2019-06-15T17:04:22.395Z,25.20
2019-06-15T17:06:49.180Z,24.80
2019-06-15T17:09:16.878Z,24.40
2019-06-15T17:11:42.732Z,24.20
2019-06-15T17:14:09.457Z,23.70
2019-06-15T17:16:36.766Z,23.40
2019-06-15T17:19:03.056Z,23.40
2019-06-15T17:21:29.765Z,23.20
2019-06-15T17:23:57.271Z,23.10
2019-06-15T17:26:25.874Z,23.00
2019-06-15T17:28:50.275Z,23.10
2019-06-15T17:31:17.115Z,23.10
2019-06-15T17:33:46.693Z,22.80
2019-06-15T17:36:11.445Z,22.80
2019-06-15T17:38:38.256Z,22.80
2019-06-15T17:41:05.871Z,22.60
2019-06-15T17:43:33.161Z,22.60
2019-06-15T17:46:00.892Z,22.50
2019-06-15T17:48:28.006Z,22.50
2019-06-15T17:50:57.015Z,22.50
2019-06-15T17:53:22.593Z,22.60
2019-06-15T17:55:50.625Z,22.60
2019-06-15T17:58:19.090Z,22.60
2019-06-15T18:00:46.930Z,22.60
2019-06-15T18:03:13.363Z,22.60
2019-06-15T18:05:40.839Z,22.40
2019-06-15T18:08:08.818Z,22.40
2019-06-15T18:10:36.883Z,22.30
2019-06-15T18:13:04.284Z,22.30
2019-06-15T18:15:31.562Z,22.30
2019-06-15T18:17:59.001Z,22.20
2019-06-15T18:20:26.996Z,22.20
2019-06-15T18:22:53.539Z,22.10
2019-06-15T18:25:20.245Z,22.10
2019-06-15T18:27:47.083Z,21.90
2019-06-15T18:30:16.500Z,21.90
2019-06-15T18:32:41.424Z,21.60
2019-06-15T18:35:08.251Z,21.60
2019-06-15T18:37:37.137Z,21.50
2019-06-15T18:40:01.942Z,21.40
2019-06-15T18:42:28.827Z,21.40
2019-06-15T18:44:56.258Z,21.00
2019-06-15T18:47:22.975Z,21.00
2019-06-15T18:49:50.499Z,21.00
2019-06-15T18:52:17.252Z,20.90
2019-06-15T18:54:46.543Z,21.00
2019-06-15T18:57:11.514Z,20.60
2019-06-15T18:59:38.244Z,20.60
2019-06-15T19:02:06.676Z,20.50
2019-06-15T19:04:32.411Z,20.30
2019-06-15T19:06:59.146Z,20.30
2019-06-15T19:09:26.850Z,19.90
2019-06-15T19:11:53.432Z,19.90
2019-06-15T19:14:21.399Z,19.70
2019-06-15T19:16:48.128Z,19.70
2019-06-15T19:19:17.100Z,19.60
2019-06-15T19:21:42.458Z,19.30
2019-06-15T19:24:09.142Z,19.30
2019-06-15T19:26:37.639Z,19.10
2019-06-15T19:29:02.807Z,18.90
2019-06-15T19:31:29.543Z,18.60
2019-06-15T19:33:56.879Z,18.50
2019-06-15T19:36:24.063Z,18.30
2019-06-15T19:38:50.785Z,18.30
2019-06-15T19:41:18.251Z,18.20
2019-06-15T19:43:46.759Z,18.20
2019-06-15T19:46:12.514Z,18.10
2019-06-15T19:48:39.250Z,18.10
2019-06-15T19:51:06.025Z,18.00
2019-06-15T19:53:32.775Z,17.90
2019-06-15T19:55:59.607Z,17.70
2019-06-15T19:58:26.525Z,17.60
2019-06-15T20:00:53.233Z,17.50
2019-06-15T20:03:19.916Z,17.30
2019-06-15T20:05:47.383Z,16.90
2019-06-15T20:08:17.402Z,16.80
2019-06-15T20:10:42.399Z,16.60
2019-06-15T20:13:09.127Z,16.60
2019-06-15T20:15:37.703Z,16.50
2019-06-15T20:18:03.442Z,16.40
2019-06-15T20:20:30.919Z,16.40
2019-06-15T20:22:57.684Z,16.30
2019-06-15T20:25:26.702Z,16.30
2019-06-15T20:27:51.910Z,16.10
2019-06-15T20:30:18.735Z,16.10
2019-06-15T20:32:46.241Z,16.00
2019-06-15T20:35:17.377Z,15.80
2019-06-15T20:37:39.534Z,15.60
2019-06-15T20:40:07.013Z,15.40
2019-06-15T20:42:33.766Z,15.40
2019-06-15T20:45:00.653Z,15.40
2019-06-15T20:47:28.082Z,15.30
2019-06-15T20:49:56.738Z,15.30
2019-06-15T20:52:21.614Z,15.20
2019-06-15T20:54:48.332Z,15.20
2019-06-15T20:57:16.515Z,15.10
2019-06-15T20:59:43.899Z,14.80
2019-06-15T21:02:10.708Z,14.80
2019-06-15T21:04:38.493Z,14.60
2019-06-15T21:07:06.629Z,14.60
2019-06-15T21:09:32.743Z,14.40
2019-06-15T21:11:59.623Z,14.40
2019-06-15T21:14:27.299Z,14.40
2019-06-15T21:16:54.052Z,14.30
2019-06-15T21:19:20.809Z,14.30
2019-06-15T21:21:48.803Z,14.30
2019-06-15T21:24:17.041Z,14.20
2019-06-15T21:26:42.711Z,14.20
2019-06-15T21:29:09.398Z,14.20
2019-06-15T21:31:36.847Z,14.10
2019-06-15T21:34:02.967Z,14.10
2019-06-15T21:36:29.707Z,13.90
2019-06-15T21:38:56.489Z,13.90
2019-06-15T21:41:23.271Z,13.80
2019-06-15T21:43:50.053Z,13.80
2019-06-15T21:46:16.887Z,13.80
2019-06-15T21:48:46.749Z,13.70
2019-06-15T21:51:11.099Z,13.70
2019-06-15T21:53:37.748Z,13.60
2019-06-15T21:56:06.854Z,13.50
2019-06-15T21:58:31.323Z,13.40
2019-06-15T22:01:06.063Z,13.40
2019-06-15T22:03:30.788Z,13.30
2019-06-15T22:06:03.395Z,13.30
2019-06-15T22:08:26.318Z,13.30
2019-06-15T22:10:51.178Z,13.30
2019-06-15T22:13:17.937Z,13.30
2019-06-15T22:15:46.700Z,13.20
2019-06-15T22:18:11.584Z,13.10
2019-06-15T22:20:38.326Z,13.10
2019-06-15T22:23:06.748Z,13.10
2019-06-15T22:25:31.850Z,13.10
2019-06-15T22:27:58.634Z,13.10
2019-06-15T22:30:27.576Z,13.10
2019-06-15T22:32:52.191Z,13.00
2019-06-15T22:35:19.649Z,12.90
2019-06-15T22:37:46.730Z,12.80
2019-06-15T22:40:16.365Z,12.60
2019-06-15T22:42:41.548Z,12.60
2019-06-15T22:45:08.354Z,12.60
2019-06-15T22:47:36.240Z,12.50
2019-06-15T22:50:06.922Z,12.40
2019-06-15T22:52:32.124Z,12.50
2019-06-15T22:54:58.882Z,12.40
2019-06-15T22:57:26.151Z,12.40
2019-06-15T22:59:52.385Z,12.40
2019-06-15T23:02:19.857Z,12.40
2019-06-15T23:04:47.193Z,12.40
2019-06-15T23:07:13.352Z,12.30
2019-06-15T23:09:40.116Z,12.20
2019-06-15T23:12:07.267Z,12.20
2019-06-15T23:14:37.149Z,12.10
2019-06-15T23:17:01.235Z,12.00
2019-06-15T23:19:27.944Z,12.00
2019-06-15T23:21:57.191Z,12.00
2019-06-15T23:24:22.247Z,12.00
2019-06-15T23:26:49.700Z,12.00
2019-06-15T23:29:16.585Z,12.00
2019-06-15T23:31:46.089Z,11.90
2019-06-15T23:34:11.559Z,11.90
2019-06-15T23:36:53.202Z,11.80
2019-06-15T23:39:07.753Z,11.80
2019-06-15T23:41:36.150Z,11.60
2019-06-15T23:44:01.111Z,11.60
2019-06-15T23:46:27.856Z,11.50
2019-06-15T23:48:56.525Z,11.50
2019-06-15T23:51:21.465Z,11.50
2019-06-15T23:53:48.917Z,11.50
2019-06-15T23:56:15.637Z,11.50
2019-06-15T23:58:42.365Z,11.40
